Time;durP1;ratioP1;P1;durP2;ratioP2;P2;SDS_P1;SDS_P2;PMS_P1;PMS_P2;Temp;Humidity;BMP_temperature;BMP_pressure;BME280_temperature;BME280_humidity;BME280_pressure;Samples;Min_cycle;Max_cycle;Signal;HPM_P1;HPM_P2
2021/12/25 00:01:48;;;;;;;8.82;4.50;;;;;;;;;;5007878;28;20125;-58
2021/12/25 00:04:16;;;;;;;8.55;4.05;;;;;;;;;;5004713;28;20042;-58
2021/12/25 00:06:42;;;;;;;10.20;5.03;;;;;;;;;;5007422;28;20057;-59
2021/12/25 00:09:09;;;;;;;10.95;4.78;;;;;;;;;;5004638;28;20073;-58
2021/12/25 00:11:37;;;;;;;8.75;4.55;;;;;;;;;;5005664;28;20128;-58
2021/12/25 00:14:10;;;;;;;9.27;4.00;;;;;;;;;;5004196;28;20076;-58
2021/12/25 00:16:37;;;;;;;10.95;4.65;;;;;;;;;;5007602;28;20060;-59
2021/12/25 00:19:03;;;;;;;9.63;4.45;;;;;;;;;;5004029;28;20053;-58
2021/12/25 00:21:32;;;;;;;8.52;4.22;;;;;;;;;;5008567;28;20514;-58
2021/12/25 00:23:58;;;;;;;7.65;3.78;;;;;;;;;;5008881;28;20042;-59
2021/12/25 00:26:39;;;;;;;8.73;3.95;;;;;;;;;;5003779;28;20049;-59
2021/12/25 00:29:28;;;;;;;9.75;5.00;;;;;;;;;;5007816;28;20061;-59
2021/12/25 00:32:07;;;;;;;8.73;4.30;;;;;;;;;;5007978;28;20053;-59
2021/12/25 00:34:33;;;;;;;9.38;4.57;;;;;;;;;;5006340;28;20074;-59
2021/12/25 00:37:01;;;;;;;8.80;3.60;;;;;;;;;;5005408;28;20085;-58
2021/12/25 00:39:29;;;;;;;9.17;4.30;;;;;;;;;;5007448;28;20054;-58
2021/12/25 00:41:56;;;;;;;7.80;3.78;;;;;;;;;;5004022;28;20304;-59
2021/12/25 00:44:22;;;;;;;8.50;4.25;;;;;;;;;;5007702;28;20126;-59
2021/12/25 00:46:49;;;;;;;8.82;4.15;;;;;;;;;;5004288;28;20121;-59
2021/12/25 00:49:15;;;;;;;8.93;4.00;;;;;;;;;;5007840;28;20128;-58
2021/12/25 00:51:42;;;;;;;9.05;4.38;;;;;;;;;;5003916;28;20096;-58
2021/12/25 00:54:10;;;;;;;11.50;4.38;;;;;;;;;;5006453;28;20053;-59
2021/12/25 00:56:37;;;;;;;8.30;3.63;;;;;;;;;;5003349;28;20058;-59
2021/12/25 00:59:03;;;;;;;8.23;3.88;;;;;;;;;;5007679;28;20144;-59
2021/12/25 01:01:30;;;;;;;10.77;3.92;;;;;;;;;;5005624;28;20073;-59
2021/12/25 01:03:57;;;;;;;9.02;4.10;;;;;;;;;;5008737;28;20053;-59
2021/12/25 01:06:23;;;;;;;6.68;2.95;;;;;;;;;;5006566;28;20163;-59
2021/12/25 01:08:50;;;;;;;6.38;3.30;;;;;;;;;;5009574;28;20090;-59
2021/12/25 01:11:23;;;;;;;5.38;3.20;;;;;;;;;;5002527;28;20053;-59
2021/12/25 01:13:56;;;;;;;6.40;3.15;;;;;;;;;;5006952;28;20526;-58
2021/12/25 01:16:42;;;;;;;7.88;3.25;;;;;;;;;;5003284;28;20129;-59
2021/12/25 01:19:43;;;;;;;6.43;3.00;;;;;;;;;;5006912;28;20082;-59
2021/12/25 01:22:49;;;;;;;5.65;2.78;;;;;;;;;;5002484;28;20069;-59
2021/12/25 01:30:54;;;;;;;7.22;3.15;;;;;;;;;;5006271;28;20183;-58
2021/12/25 01:33:45;;;;;;;6.57;2.83;;;;;;;;;;4995445;28;20050;-59
2021/12/25 01:39:05;;;;;;;5.95;2.80;;;;;;;;;;5002731;28;20046;-58
2021/12/25 01:49:51;;;;;;;6.15;2.88;;;;;;;;;;5003709;28;20049;-58
2021/12/25 01:52:25;;;;;;;8.23;3.80;;;;;;;;;;5006522;28;20077;-58
2021/12/25 01:54:51;;;;;;;8.60;4.32;;;;;;;;;;5002270;28;20072;-58
2021/12/25 01:57:21;;;;;;;5.93;2.60;;;;;;;;;;5006219;28;20086;-58
2021/12/25 01:59:48;;;;;;;7.32;3.97;;;;;;;;;;5003586;28;20060;-58
2021/12/25 02:02:17;;;;;;;5.97;2.65;;;;;;;;;;5007509;28;20062;-58
2021/12/25 02:04:44;;;;;;;8.43;3.95;;;;;;;;;;5003662;28;20163;-59
2021/12/25 02:07:10;;;;;;;11.52;5.15;;;;;;;;;;5005723;28;20077;-58
2021/12/25 02:09:37;;;;;;;7.93;3.42;;;;;;;;;;5002642;28;20111;-59
2021/12/25 02:12:04;;;;;;;7.90;3.72;;;;;;;;;;5006515;28;20077;-58
2021/12/25 02:14:42;;;;;;;10.18;4.03;;;;;;;;;;5002539;28;20141;-58
2021/12/25 02:17:37;;;;;;;7.72;3.95;;;;;;;;;;4979344;28;20058;-59
2021/12/25 02:20:12;;;;;;;9.50;4.20;;;;;;;;;;4992605;28;20057;-58
2021/12/25 02:22:39;;;;;;;12.55;5.45;;;;;;;;;;5004457;28;20116;-58
2021/12/25 02:25:06;;;;;;;11.25;5.38;;;;;;;;;;4999069;28;20057;-58
2021/12/25 02:27:32;;;;;;;12.40;5.20;;;;;;;;;;5005424;28;20057;-58
2021/12/25 02:29:59;;;;;;;7.80;3.88;;;;;;;;;;5002624;28;20064;-58
2021/12/25 02:32:25;;;;;;;14.13;6.80;;;;;;;;;;5033324;28;20055;-58
2021/12/25 02:34:52;;;;;;;10.25;4.57;;;;;;;;;;5004474;28;20085;-58
2021/12/25 02:37:20;;;;;;;11.27;5.18;;;;;;;;;;4999101;28;20105;-58
2021/12/25 02:39:47;;;;;;;6.60;2.67;;;;;;;;;;5005276;28;20058;-58
2021/12/25 02:42:14;;;;;;;14.00;6.15;;;;;;;;;;4996632;28;20312;-59
2021/12/25 02:44:41;;;;;;;7.53;3.97;;;;;;;;;;5004906;28;20120;-58
2021/12/25 02:47:16;;;;;;;11.88;5.65;;;;;;;;;;4999801;28;20116;-58
2021/12/25 02:49:46;;;;;;;12.10;6.05;;;;;;;;;;5005291;28;20061;-58
2021/12/25 02:52:13;;;;;;;14.32;6.28;;;;;;;;;;5001302;28;20084;-58
2021/12/25 02:54:41;;;;;;;11.93;6.03;;;;;;;;;;5000720;28;20128;-58
2021/12/25 02:57:07;;;;;;;13.10;6.73;;;;;;;;;;5004930;28;20057;-58
2021/12/25 02:59:34;;;;;;;15.52;7.45;;;;;;;;;;4996537;28;20358;-58
2021/12/25 03:02:04;;;;;;;15.88;7.05;;;;;;;;;;5004019;28;20108;-58
2021/12/25 03:04:30;;;;;;;14.32;6.88;;;;;;;;;;5001820;28;20069;-58
2021/12/25 03:06:57;;;;;;;14.57;6.90;;;;;;;;;;5008314;28;20143;-58
2021/12/25 03:09:23;;;;;;;13.55;6.47;;;;;;;;;;5006708;28;20064;-58
2021/12/25 03:11:52;;;;;;;17.92;6.93;;;;;;;;;;5007344;28;20081;-58
2021/12/25 03:14:32;;;;;;;11.57;5.22;;;;;;;;;;5009621;28;20049;-58
2021/12/25 03:16:59;;;;;;;10.48;5.50;;;;;;;;;;5004724;28;20141;-58
2021/12/25 03:19:31;;;;;;;15.68;7.25;;;;;;;;;;5008725;28;20060;-58
2021/12/25 03:21:58;;;;;;;8.57;4.25;;;;;;;;;;5004630;28;20058;-58
2021/12/25 03:24:24;;;;;;;15.55;6.03;;;;;;;;;;5009710;28;20261;-58
2021/12/25 03:26:55;;;;;;;17.33;8.00;;;;;;;;;;5004969;28;20101;-58
2021/12/25 03:29:21;;;;;;;15.25;7.10;;;;;;;;;;5009207;28;20054;-58
2021/12/25 03:31:49;;;;;;;12.30;4.22;;;;;;;;;;5005989;28;20092;-58
2021/12/25 03:34:15;;;;;;;14.82;5.60;;;;;;;;;;5010405;28;20064;-59
2021/12/25 03:36:42;;;;;;;14.70;7.15;;;;;;;;;;5010366;28;20049;-58
2021/12/25 03:39:09;;;;;;;15.88;7.43;;;;;;;;;;5008487;28;20046;-58
2021/12/25 03:41:37;;;;;;;13.73;6.47;;;;;;;;;;5009099;28;20060;-58
2021/12/25 03:44:05;;;;;;;23.30;8.18;;;;;;;;;;5005632;28;20077;-58
2021/12/25 03:46:31;;;;;;;19.02;7.53;;;;;;;;;;5008278;28;20081;-58
2021/12/25 03:49:14;;;;;;;14.93;6.30;;;;;;;;;;5005683;28;20434;-58
2021/12/25 04:00:03;;;;;;;14.15;5.70;;;;;;;;;;4985242;28;20084;-58
2021/12/25 04:02:35;;;;;;;14.60;5.65;;;;;;;;;;4989281;28;20055;-58
2021/12/25 04:05:03;;;;;;;14.52;6.07;;;;;;;;;;4985522;28;20050;-58
2021/12/25 04:07:55;;;;;;;18.05;7.28;;;;;;;;;;4988829;28;20058;-58
2021/12/25 04:10:21;;;;;;;6.65;2.63;;;;;;;;;;4986886;28;20138;-58
2021/12/25 04:12:48;;;;;;;14.57;6.45;;;;;;;;;;4988430;28;20061;-58
2021/12/25 04:15:16;;;;;;;13.85;6.22;;;;;;;;;;4986753;28;20141;-58
2021/12/25 04:17:43;;;;;;;17.35;8.20;;;;;;;;;;4988245;28;20047;-58
2021/12/25 04:20:09;;;;;;;17.13;7.22;;;;;;;;;;4983627;28;20504;-58
2021/12/25 04:22:43;;;;;;;12.02;5.75;;;;;;;;;;4988379;28;20054;-58
2021/12/25 04:25:10;;;;;;;12.18;6.03;;;;;;;;;;4984942;28;20145;-58
2021/12/25 04:27:38;;;;;;;9.95;4.43;;;;;;;;;;4988370;28;20066;-58
2021/12/25 04:30:18;;;;;;;14.85;6.22;;;;;;;;;;4994688;28;20080;-58
2021/12/25 05:03:03;;;;;;;9.57;4.22;;;;;;;;;;4988246;28;20046;-58
2021/12/25 05:05:32;;;;;;;10.00;4.55;;;;;;;;;;4986179;28;20078;-58
2021/12/25 05:07:59;;;;;;;10.25;4.63;;;;;;;;;;5007135;28;20053;-58
2021/12/25 05:10:28;;;;;;;8.57;3.83;;;;;;;;;;5004120;28;20057;-59
2021/12/25 05:12:54;;;;;;;9.93;4.38;;;;;;;;;;5007181;28;20082;-58
2021/12/25 05:15:21;;;;;;;10.93;3.92;;;;;;;;;;5007599;28;20104;-58
2021/12/25 05:17:47;;;;;;;9.48;3.72;;;;;;;;;;5003141;28;20455;-58
2021/12/25 05:20:14;;;;;;;6.55;2.70;;;;;;;;;;5007512;28;20061;-59
2021/12/25 05:22:42;;;;;;;7.13;3.08;;;;;;;;;;5003708;28;20140;-58
2021/12/25 05:25:10;;;;;;;6.65;3.17;;;;;;;;;;5006992;28;20131;-59
2021/12/25 05:27:36;;;;;;;8.27;3.28;;;;;;;;;;5002785;28;20057;-58
2021/12/25 05:30:03;;;;;;;6.55;2.50;;;;;;;;;;5007153;28;20054;-59
2021/12/25 05:32:32;;;;;;;7.97;2.50;;;;;;;;;;5004703;28;20057;-58
2021/12/25 05:34:58;;;;;;;6.25;2.53;;;;;;;;;;5008524;28;20046;-59
2021/12/25 05:37:25;;;;;;;7.50;2.20;;;;;;;;;;5004079;28;20069;-58
2021/12/25 05:39:53;;;;;;;5.18;2.25;;;;;;;;;;5006713;28;20057;-58
2021/12/25 05:42:22;;;;;;;6.13;2.72;;;;;;;;;;5003507;28;20046;-58
2021/12/25 05:44:49;;;;;;;6.03;2.80;;;;;;;;;;5006820;28;20064;-58
2021/12/25 05:47:16;;;;;;;7.20;2.38;;;;;;;;;;5002311;28;20050;-58
2021/12/25 05:49:42;;;;;;;7.13;2.50;;;;;;;;;;5006572;28;20089;-57
2021/12/25 05:52:10;;;;;;;6.70;2.38;;;;;;;;;;5002971;28;20550;-58
2021/12/25 05:54:37;;;;;;;5.82;1.98;;;;;;;;;;5007426;28;20145;-58
2021/12/25 05:57:05;;;;;;;4.00;2.08;;;;;;;;;;5005961;28;20077;-59
2021/12/25 05:59:31;;;;;;;4.97;2.17;;;;;;;;;;5002458;28;20086;-58
2021/12/25 06:01:58;;;;;;;4.72;1.50;;;;;;;;;;5006481;28;20144;-58
2021/12/25 06:04:25;;;;;;;8.05;1.85;;;;;;;;;;5002264;28;20096;-58
2021/12/25 06:06:51;;;;;;;9.07;1.88;;;;;;;;;;5004908;28;20053;-58
2021/12/25 06:09:20;;;;;;;4.68;2.00;;;;;;;;;;5001340;28;20061;-59
2021/12/25 06:11:47;;;;;;;2.58;1.45;;;;;;;;;;5006368;28;20111;-57
2021/12/25 06:14:20;;;;;;;6.03;1.58;;;;;;;;;;5002760;28;20054;-58
2021/12/25 06:16:47;;;;;;;5.18;1.30;;;;;;;;;;5006080;28;20045;-57
2021/12/25 06:19:13;;;;;;;3.17;1.52;;;;;;;;;;5002174;28;20056;-57
2021/12/25 06:21:40;;;;;;;5.97;1.55;;;;;;;;;;5006288;28;20058;-57
2021/12/25 06:24:07;;;;;;;4.45;1.67;;;;;;;;;;5002940;28;20112;-57
2021/12/25 06:26:34;;;;;;;3.53;1.70;;;;;;;;;;5006241;28;20072;-58
2021/12/25 06:29:00;;;;;;;3.47;1.38;;;;;;;;;;5002530;28;20078;-57
2021/12/25 06:31:30;;;;;;;3.45;1.50;;;;;;;;;;5006913;28;20065;-57
2021/12/25 06:33:57;;;;;;;4.22;1.42;;;;;;;;;;5002239;28;20084;-57
2021/12/25 06:36:23;;;;;;;4.05;1.17;;;;;;;;;;5006109;28;20104;-58
2021/12/25 06:38:50;;;;;;;3.35;1.27;;;;;;;;;;5003646;28;20058;-57
2021/12/25 06:41:16;;;;;;;1.08;0.63;;;;;;;;;;5009029;28;20630;-57
2021/12/25 06:43:43;;;;;;;3.88;1.42;;;;;;;;;;5009772;28;20065;-58
2021/12/25 06:46:10;;;;;;;4.78;1.55;;;;;;;;;;5006171;28;20057;-57
2021/12/25 06:48:38;;;;;;;4.78;1.90;;;;;;;;;;5010335;28;20061;-58
2021/12/25 06:51:05;;;;;;;3.40;1.57;;;;;;;;;;5006006;28;20060;-58
2021/12/25 06:53:32;;;;;;;4.03;1.02;;;;;;;;;;5010273;28;20092;-59
2021/12/25 06:55:58;;;;;;;3.15;1.20;;;;;;;;;;5006295;28;20054;-58
2021/12/25 06:58:25;;;;;;;3.70;1.70;;;;;;;;;;5009298;28;20146;-58
2021/12/25 07:00:53;;;;;;;2.72;1.15;;;;;;;;;;5007910;28;20050;-58
2021/12/25 07:03:20;;;;;;;4.45;1.52;;;;;;;;;;5012390;28;20061;-58
2021/12/25 07:05:48;;;;;;;4.70;1.75;;;;;;;;;;5006645;28;20068;-58
2021/12/25 07:08:14;;;;;;;4.60;1.67;;;;;;;;;;5009890;28;20058;-57
2021/12/25 07:10:42;;;;;;;3.17;1.35;;;;;;;;;;5005778;28;20344;-58
2021/12/25 07:13:15;;;;;;;4.38;1.35;;;;;;;;;;5009432;28;20057;-58
2021/12/25 07:15:42;;;;;;;3.03;1.42;;;;;;;;;;5005436;28;20049;-57
2021/12/25 07:18:08;;;;;;;4.60;1.75;;;;;;;;;;5009120;28;20120;-57
2021/12/25 07:20:35;;;;;;;2.17;1.13;;;;;;;;;;5005880;28;20149;-58
2021/12/25 07:23:03;;;;;;;3.47;1.45;;;;;;;;;;5009330;28;20058;-57
2021/12/25 07:25:30;;;;;;;2.80;1.20;;;;;;;;;;5008607;28;20046;-58
2021/12/25 07:27:56;;;;;;;5.65;1.70;;;;;;;;;;5004002;28;20061;-57
2021/12/25 07:30:23;;;;;;;2.63;1.17;;;;;;;;;;5008954;28;20141;-57
2021/12/25 07:32:49;;;;;;;5.90;1.42;;;;;;;;;;5004899;28;20046;-58
2021/12/25 07:35:16;;;;;;;7.95;0.73;;;;;;;;;;5008781;28;20061;-57
2021/12/25 07:37:43;;;;;;;4.30;1.73;;;;;;;;;;5004504;28;20560;-58
2021/12/25 07:40:11;;;;;;;8.07;1.50;;;;;;;;;;5008802;28;20081;-57
2021/12/25 07:42:38;;;;;;;2.42;1.13;;;;;;;;;;5005517;28;20100;-58
2021/12/25 07:45:06;;;;;;;3.85;1.55;;;;;;;;;;5009291;28;20058;-58
2021/12/25 07:47:34;;;;;;;4.10;1.38;;;;;;;;;;5004690;28;20053;-58
2021/12/25 07:50:01;;;;;;;2.33;1.25;;;;;;;;;;5008204;28;20151;-58
2021/12/25 07:52:29;;;;;;;5.40;1.75;;;;;;;;;;5004095;28;20081;-54
2021/12/25 07:54:55;;;;;;;4.33;1.40;;;;;;;;;;5008883;28;20054;-58
2021/12/25 07:57:23;;;;;;;3.10;1.23;;;;;;;;;;5004817;28;20046;-57
2021/12/25 07:59:50;;;;;;;1.65;0.77;;;;;;;;;;5008787;28;20046;-57
2021/12/25 08:02:17;;;;;;;2.95;1.20;;;;;;;;;;5004346;28;20068;-57
2021/12/25 08:04:44;;;;;;;3.47;1.15;;;;;;;;;;5007962;28;20046;-57
2021/12/25 08:07:10;;;;;;;1.52;0.70;;;;;;;;;;5007737;28;20057;-57
2021/12/25 08:09:38;;;;;;;8.10;1.67;;;;;;;;;;5004401;28;20060;-58
2021/12/25 08:12:05;;;;;;;4.18;1.58;;;;;;;;;;5008296;28;20054;-57
2021/12/25 08:14:33;;;;;;;3.55;1.70;;;;;;;;;;5004750;28;20057;-57
2021/12/25 08:17:01;;;;;;;2.53;1.33;;;;;;;;;;5008430;28;20074;-57
2021/12/25 08:19:27;;;;;;;2.67;1.27;;;;;;;;;;5004440;28;20092;-57
2021/12/25 08:21:55;;;;;;;3.78;1.83;;;;;;;;;;5008380;28;20137;-57
2021/12/25 08:24:23;;;;;;;7.35;1.80;;;;;;;;;;5005117;28;20061;-58
2021/12/25 08:26:50;;;;;;;3.20;1.38;;;;;;;;;;5008789;28;20049;-57
2021/12/25 08:29:18;;;;;;;2.55;1.20;;;;;;;;;;5005964;28;20046;-57
2021/12/25 08:31:47;;;;;;;3.28;1.70;;;;;;;;;;5009494;28;20488;-58
2021/12/25 08:34:13;;;;;;;4.07;1.60;;;;;;;;;;5004356;28;20049;-58
2021/12/25 08:36:40;;;;;;;4.03;1.98;;;;;;;;;;5007509;28;20126;-57
2021/12/25 08:39:07;;;;;;;1.90;0.90;;;;;;;;;;5004154;28;20054;-57
2021/12/25 08:41:34;;;;;;;2.40;1.45;;;;;;;;;;5005898;28;20046;-57
2021/12/25 08:44:07;;;;;;;3.72;1.83;;;;;;;;;;5003995;28;20125;-57
2021/12/25 08:46:45;;;;;;;4.65;1.20;;;;;;;;;;5007440;28;20053;-58
2021/12/25 08:49:16;;;;;;;3.53;1.50;;;;;;;;;;5003933;28;20058;-57
2021/12/25 08:51:45;;;;;;;3.13;1.50;;;;;;;;;;5004990;28;20061;-57
2021/12/25 08:54:12;;;;;;;3.20;1.50;;;;;;;;;;5003063;28;20058;-57
2021/12/25 08:56:39;;;;;;;4.18;1.70;;;;;;;;;;5005691;28;20058;-57
2021/12/25 08:59:06;;;;;;;2.67;1.35;;;;;;;;;;5005939;28;20064;-57
2021/12/25 09:01:32;;;;;;;3.10;1.23;;;;;;;;;;5001932;28;20672;-57
2021/12/25 09:03:59;;;;;;;2.53;1.13;;;;;;;;;;5006503;28;20060;-58
2021/12/25 09:06:27;;;;;;;3.55;1.25;;;;;;;;;;5002559;28;20065;-57
2021/12/25 09:08:54;;;;;;;2.20;1.05;;;;;;;;;;5005736;28;20061;-58
2021/12/25 09:11:22;;;;;;;3.20;1.30;;;;;;;;;;5035663;28;20062;-57
2021/12/25 09:13:48;;;;;;;3.80;1.60;;;;;;;;;;5006399;28;20089;-58
2021/12/25 09:16:15;;;;;;;4.93;1.27;;;;;;;;;;5002452;28;20053;-57
2021/12/25 09:18:41;;;;;;;1.30;0.70;;;;;;;;;;5005531;28;20058;-58
2021/12/25 09:21:08;;;;;;;2.30;1.05;;;;;;;;;;5002186;28;20523;-57
2021/12/25 09:23:37;;;;;;;2.90;1.13;;;;;;;;;;5006986;28;20115;-57
2021/12/25 09:26:03;;;;;;;2.85;0.70;;;;;;;;;;5003684;28;20065;-57
2021/12/25 09:28:30;;;;;;;2.45;1.05;;;;;;;;;;5006287;28;20065;-58
2021/12/25 09:30:57;;;;;;;1.42;0.57;;;;;;;;;;5003291;28;20050;-57
2021/12/25 09:33:24;;;;;;;2.70;1.23;;;;;;;;;;5006909;28;20119;-58
2021/12/25 09:35:51;;;;;;;1.90;0.98;;;;;;;;;;5034663;28;20037;-57
2021/12/25 09:38:17;;;;;;;2.42;0.80;;;;;;;;;;5007239;28;20053;-57
2021/12/25 09:40:46;;;;;;;2.22;0.88;;;;;;;;;;5006790;28;20054;-57
2021/12/25 09:43:13;;;;;;;2.42;0.90;;;;;;;;;;5002984;28;20049;-58
2021/12/25 09:45:40;;;;;;;4.13;1.02;;;;;;;;;;5006670;28;20499;-57
2021/12/25 09:48:07;;;;;;;3.15;1.10;;;;;;;;;;5003092;28;20054;-58
2021/12/25 09:50:34;;;;;;;4.88;0.82;;;;;;;;;;5006823;28;20057;-58
2021/12/25 09:53:04;;;;;;;1.92;0.70;;;;;;;;;;5003712;28;20049;-59
2021/12/25 09:55:31;;;;;;;2.50;0.90;;;;;;;;;;5024517;28;20124;-58
2021/12/25 09:57:59;;;;;;;1.73;0.85;;;;;;;;;;5011912;28;20038;-57
2021/12/25 10:00:29;;;;;;;2.27;1.00;;;;;;;;;;5008104;28;20057;-59
2021/12/25 10:02:56;;;;;;;1.73;0.77;;;;;;;;;;5002721;28;20073;-58
2021/12/25 10:05:26;;;;;;;3.20;0.60;;;;;;;;;;5005322;28;20092;-58
2021/12/25 10:08:04;;;;;;;1.45;0.63;;;;;;;;;;5002584;28;20057;-58
2021/12/25 10:10:39;;;;;;;1.73;0.70;;;;;;;;;;5006881;28;20069;-57
2021/12/25 10:13:17;;;;;;;0.75;0.32;;;;;;;;;;5001751;28;20111;-60
2021/12/25 10:15:43;;;;;;;0.82;0.50;;;;;;;;;;5005659;28;20123;-58
2021/12/25 10:18:10;;;;;;;0.40;0.40;;;;;;;;;;5002119;28;20089;-58
2021/12/25 10:20:37;;;;;;;2.20;0.80;;;;;;;;;;5005673;28;20150;-59
2021/12/25 10:23:07;;;;;;;2.13;0.68;;;;;;;;;;5001994;28;20123;-58
2021/12/25 10:25:38;;;;;;;1.02;0.40;;;;;;;;;;5004410;28;20081;-58
2021/12/25 10:28:07;;;;;;;1.83;0.63;;;;;;;;;;5002005;28;20054;-57
2021/12/25 10:30:45;;;;;;;1.20;0.57;;;;;;;;;;5006091;28;20049;-57
2021/12/25 10:33:22;;;;;;;0.38;0.32;;;;;;;;;;5002391;28;20057;-58
2021/12/25 10:35:49;;;;;;;3.38;0.60;;;;;;;;;;5005435;28;20088;-57
2021/12/25 10:38:17;;;;;;;1.75;0.63;;;;;;;;;;5001888;28;20061;-55
2021/12/25 10:40:44;;;;;;;1.25;0.52;;;;;;;;;;5005471;28;20090;-55
2021/12/25 10:43:19;;;;;;;0.80;0.50;;;;;;;;;;5006023;28;20050;-56
2021/12/25 10:45:59;;;;;;;1.08;0.52;;;;;;;;;;5003198;28;20057;-57
2021/12/25 10:48:27;;;;;;;1.75;0.60;;;;;;;;;;5006072;28;20165;-57
2021/12/25 10:50:54;;;;;;;0.15;0.15;;;;;;;;;;5002900;28;20124;-55
2021/12/25 10:53:25;;;;;;;1.05;0.50;;;;;;;;;;5006876;28;20136;-57
2021/12/25 10:55:53;;;;;;;1.05;0.57;;;;;;;;;;5001571;28;20053;-57
2021/12/25 10:58:20;;;;;;;0.52;0.28;;;;;;;;;;5005428;28;20054;-56
2021/12/25 11:00:50;;;;;;;1.40;0.60;;;;;;;;;;5001593;28;20080;-57
2021/12/25 11:03:26;;;;;;;1.30;0.70;;;;;;;;;;5005877;28;20060;-58
2021/12/25 11:05:53;;;;;;;0.85;0.40;;;;;;;;;;5001621;28;20060;-57
2021/12/25 11:08:23;;;;;;;1.27;0.60;;;;;;;;;;5005749;28;20066;-58
2021/12/25 11:10:54;;;;;;;1.08;0.43;;;;;;;;;;5002641;28;20058;-57
2021/12/25 11:13:23;;;;;;;0.70;0.40;;;;;;;;;;5006081;28;20057;-58
2021/12/25 11:15:52;;;;;;;1.92;0.77;;;;;;;;;;4998321;28;20078;-57
2021/12/25 11:18:20;;;;;;;0.60;0.25;;;;;;;;;;5003156;28;20062;-58
2021/12/25 11:20:47;;;;;;;0.57;0.30;;;;;;;;;;4992162;28;20062;-56
2021/12/25 11:23:14;;;;;;;0.60;0.47;;;;;;;;;;5008480;28;20050;-57
2021/12/25 11:25:42;;;;;;;1.25;0.50;;;;;;;;;;5003671;28;20061;-57
2021/12/25 11:28:13;;;;;;;3.25;0.63;;;;;;;;;;5008520;28;20048;-55
2021/12/25 11:30:42;;;;;;;1.33;0.50;;;;;;;;;;5005630;28;20052;-57
2021/12/25 11:33:08;;;;;;;1.77;0.70;;;;;;;;;;5008952;28;20045;-57
2021/12/25 11:35:36;;;;;;;0.95;0.60;;;;;;;;;;4983753;28;20081;-58
2021/12/25 11:38:04;;;;;;;0.93;0.57;;;;;;;;;;4988861;28;20046;-58
2021/12/25 11:40:33;;;;;;;3.35;0.43;;;;;;;;;;4989471;28;20056;-58
2021/12/25 11:43:02;;;;;;;0.80;0.50;;;;;;;;;;4988549;28;20050;-58
2021/12/25 11:45:33;;;;;;;0.63;0.40;;;;;;;;;;4989902;28;20109;-57
2021/12/25 11:48:01;;;;;;;1.00;0.57;;;;;;;;;;4986172;28;20117;-55
2021/12/25 11:50:45;;;;;;;0.98;0.57;;;;;;;;;;4989371;28;20074;-54
2021/12/25 11:53:18;;;;;;;0.30;0.30;;;;;;;;;;4985085;28;20076;-57
2021/12/25 11:56:18;;;;;;;0.85;0.50;;;;;;;;;;4989223;28;20062;-56
2021/12/25 11:58:51;;;;;;;1.90;0.68;;;;;;;;;;4969561;28;20097;-56
2021/12/25 12:01:22;;;;;;;0.52;0.40;;;;;;;;;;5002225;28;20150;-54
2021/12/25 12:03:54;;;;;;;1.50;0.50;;;;;;;;;;5004661;28;20058;-52
2021/12/25 12:06:42;;;;;;;1.98;0.70;;;;;;;;;;4988471;28;20065;-52
2021/12/25 12:09:11;;;;;;;3.42;0.40;;;;;;;;;;4970081;28;20153;-52
2021/12/25 12:11:40;;;;;;;1.30;0.52;;;;;;;;;;4969646;28;20046;-54
2021/12/25 12:14:18;;;;;;;3.58;0.70;;;;;;;;;;4984244;28;20072;-56
2021/12/25 12:16:45;;;;;;;3.90;0.50;;;;;;;;;;4979517;28;20050;-55
2021/12/25 12:19:32;;;;;;;0.70;0.50;;;;;;;;;;4985979;28;20112;-57
2021/12/25 12:22:00;;;;;;;0.38;0.38;;;;;;;;;;4984269;28;20141;-55
2021/12/25 12:24:44;;;;;;;0.73;0.45;;;;;;;;;;4995396;28;20081;-56
2021/12/25 12:27:10;;;;;;;1.10;0.60;;;;;;;;;;5006890;28;20133;-53
2021/12/25 12:29:45;;;;;;;1.55;0.60;;;;;;;;;;4985920;28;20133;-53
2021/12/25 12:32:29;;;;;;;0.75;0.35;;;;;;;;;;4988749;28;20062;-54
2021/12/25 12:34:56;;;;;;;1.17;0.52;;;;;;;;;;4985290;28;20058;-54
2021/12/25 12:37:26;;;;;;;1.17;0.43;;;;;;;;;;5007302;28;20389;-55
2021/12/25 12:40:12;;;;;;;0.55;0.47;;;;;;;;;;4987659;28;20058;-54
2021/12/25 12:42:51;;;;;;;2.55;0.52;;;;;;;;;;4995913;28;20090;-55
2021/12/25 12:45:20;;;;;;;0.20;0.20;;;;;;;;;;4984435;28;20050;-56
2021/12/25 12:47:46;;;;;;;;;;;;;;;;;;4989684;28;20042;-55
2021/12/25 12:50:13;;;;;;;2.20;0.52;;;;;;;;;;5018073;28;20470;-52
2021/12/25 12:52:41;;;;;;;2.63;0.65;;;;;;;;;;4990381;28;20051;-57
2021/12/25 12:55:09;;;;;;;1.15;0.17;;;;;;;;;;4984533;28;20061;-55
2021/12/25 12:57:37;;;;;;;1.33;0.60;;;;;;;;;;4986478;28;20105;-54
2021/12/25 13:00:09;;;;;;;1.80;0.40;;;;;;;;;;4984138;28;20050;-56
2021/12/25 13:02:40;;;;;;;2.38;0.50;;;;;;;;;;4986912;28;20050;-54
2021/12/25 13:05:06;;;;;;;2.15;0.43;;;;;;;;;;4984481;28;20266;-57
2021/12/25 13:07:35;;;;;;;0.63;0.17;;;;;;;;;;4978757;28;20061;-54
2021/12/25 13:10:10;;;;;;;2.03;0.43;;;;;;;;;;4983442;28;20050;-56
2021/12/25 13:12:44;;;;;;;2.05;0.70;;;;;;;;;;4987891;28;20062;-54
2021/12/25 13:15:15;;;;;;;0.88;0.47;;;;;;;;;;4977089;28;20050;-55
2021/12/25 13:17:49;;;;;;;0.60;0.40;;;;;;;;;;4987229;28;20066;-50
2021/12/25 13:20:17;;;;;;;1.13;0.52;;;;;;;;;;4984102;28;20078;-55
2021/12/25 13:22:44;;;;;;;0.28;0.15;;;;;;;;;;4987727;28;20153;-51
2021/12/25 13:25:13;;;;;;;3.58;0.73;;;;;;;;;;4983582;28;20061;-56
2021/12/25 13:27:40;;;;;;;1.08;0.40;;;;;;;;;;4987382;28;20054;-54
2021/12/25 13:30:10;;;;;;;1.63;0.68;;;;;;;;;;4983261;28;20156;-57
2021/12/25 13:32:38;;;;;;;1.75;0.70;;;;;;;;;;4987203;28;20108;-56
2021/12/25 13:35:05;;;;;;;1.00;0.60;;;;;;;;;;4984359;28;20056;-55
2021/12/25 13:37:32;;;;;;;0.98;0.43;;;;;;;;;;4967920;28;20078;-53
2021/12/25 13:39:58;;;;;;;0.73;0.43;;;;;;;;;;4978905;28;20058;-56
2021/12/25 13:42:25;;;;;;;1.27;0.60;;;;;;;;;;4983713;28;20069;-55
2021/12/25 13:44:53;;;;;;;3.55;0.70;;;;;;;;;;4987310;28;20062;-53
2021/12/25 13:47:22;;;;;;;1.13;0.60;;;;;;;;;;4982825;28;20076;-54
2021/12/25 13:49:51;;;;;;;1.40;0.70;;;;;;;;;;4986534;28;20070;-54
2021/12/25 13:52:26;;;;;;;0.93;0.55;;;;;;;;;;4983231;28;20054;-54
2021/12/25 13:54:58;;;;;;;0.45;0.30;;;;;;;;;;4987270;28;20059;-53
2021/12/25 13:57:25;;;;;;;1.50;0.50;;;;;;;;;;4988356;28;20073;-57
2021/12/25 13:59:53;;;;;;;0.93;0.55;;;;;;;;;;4964665;28;20098;-54
2021/12/25 14:02:21;;;;;;;0.93;0.40;;;;;;;;;;4974103;28;20050;-56
2021/12/25 14:04:51;;;;;;;1.45;0.50;;;;;;;;;;4986973;28;20054;-55
2021/12/25 14:07:20;;;;;;;2.17;0.63;;;;;;;;;;4982841;28;20056;-58
2021/12/25 14:09:54;;;;;;;2.08;0.43;;;;;;;;;;4987006;28;20078;-57
2021/12/25 14:12:22;;;;;;;1.70;0.80;;;;;;;;;;4983101;28;20071;-56
2021/12/25 14:14:49;;;;;;;0.65;0.57;;;;;;;;;;4988564;28;20077;-58
2021/12/25 14:17:16;;;;;;;0.63;0.30;;;;;;;;;;4985132;28;20046;-56
2021/12/25 14:19:42;;;;;;;1.25;0.40;;;;;;;;;;4988943;28;20073;-55
2021/12/25 14:22:09;;;;;;;1.35;0.50;;;;;;;;;;4983018;28;20062;-55
2021/12/25 14:24:44;;;;;;;1.90;0.60;;;;;;;;;;4975575;28;20057;-54
2021/12/25 14:27:12;;;;;;;1.60;0.50;;;;;;;;;;4963162;28;20054;-56
2021/12/25 14:29:38;;;;;;;0.22;0.10;;;;;;;;;;4994892;28;20050;-53
2021/12/25 14:32:17;;;;;;;2.45;0.30;;;;;;;;;;4970375;28;20109;-54
2021/12/25 14:34:44;;;;;;;1.08;0.50;;;;;;;;;;4986024;28;20141;-52
2021/12/25 14:37:10;;;;;;;1.42;0.57;;;;;;;;;;4986281;28;20093;-55
2021/12/25 14:39:37;;;;;;;1.42;0.52;;;;;;;;;;4982622;28;20137;-52
2021/12/25 14:42:05;;;;;;;1.95;0.80;;;;;;;;;;4986582;28;20058;-52
2021/12/25 14:44:32;;;;;;;2.28;0.65;;;;;;;;;;4982768;28;20141;-53
2021/12/25 14:47:07;;;;;;;0.77;0.30;;;;;;;;;;4986445;28;20058;-56
2021/12/25 14:49:35;;;;;;;0.80;0.40;;;;;;;;;;4982608;28;20062;-55
2021/12/25 14:52:02;;;;;;;0.47;0.43;;;;;;;;;;4982415;28;20054;-55
2021/12/25 14:54:29;;;;;;;1.95;0.73;;;;;;;;;;4974996;28;20065;-52
2021/12/25 14:56:58;;;;;;;1.35;0.50;;;;;;;;;;4986154;28;20063;-55
2021/12/25 14:59:26;;;;;;;1.25;0.57;;;;;;;;;;4982827;28;20062;-55
2021/12/25 15:01:54;;;;;;;;;;;;;;;;;;4987652;28;20078;-54
2021/12/25 15:04:21;;;;;;;2.30;0.63;;;;;;;;;;4985934;28;19929;-53
2021/12/25 15:06:49;;;;;;;0.65;0.40;;;;;;;;;;4988968;28;20065;-56
2021/12/25 15:09:18;;;;;;;1.00;0.67;;;;;;;;;;4984605;28;20050;-55
2021/12/25 15:11:46;;;;;;;1.60;0.60;;;;;;;;;;4989463;28;20058;-51
2021/12/25 15:14:14;;;;;;;1.07;0.60;;;;;;;;;;4986132;28;20050;-53
2021/12/25 15:16:46;;;;;;;1.95;0.70;;;;;;;;;;4972760;28;20054;-57
2021/12/25 15:19:21;;;;;;;0.90;0.50;;;;;;;;;;4985840;28;20054;-56
2021/12/25 15:21:48;;;;;;;0.63;0.43;;;;;;;;;;4988926;28;20066;-53
2021/12/25 15:24:16;;;;;;;1.45;0.55;;;;;;;;;;4986287;28;20054;-58
2021/12/25 15:26:44;;;;;;;1.25;0.60;;;;;;;;;;4988245;28;20059;-59
2021/12/25 15:29:11;;;;;;;0.65;0.45;;;;;;;;;;4988832;28;20089;-57
2021/12/25 15:31:38;;;;;;;1.40;0.50;;;;;;;;;;4985273;28;20074;-58
2021/12/25 15:34:09;;;;;;;0.47;0.32;;;;;;;;;;4988495;28;20057;-53
2021/12/25 15:36:42;;;;;;;0.93;0.52;;;;;;;;;;5017184;28;20075;-58
2021/12/25 15:39:10;;;;;;;1.15;0.50;;;;;;;;;;4989197;28;20050;-59
2021/12/25 15:41:41;;;;;;;1.15;0.47;;;;;;;;;;4985447;28;20082;-59
2021/12/25 15:44:08;;;;;;;1.35;0.60;;;;;;;;;;4990532;28;20077;-57
2021/12/25 15:46:35;;;;;;;7.32;0.80;;;;;;;;;;4984962;28;20050;-51
2021/12/25 15:49:01;;;;;;;1.25;0.65;;;;;;;;;;4989072;28;20138;-56